Time;durP1;ratioP1;P1;durP2;ratioP2;P2;SDS_P1;SDS_P2;PMS_P1;PMS_P2;Temp;Humidity;BMP_temperature;BMP_pressure;BME280_temperature;BME280_humidity;BME280_pressure;Samples;Min_cycle;Max_cycle;Signal;HPM_P1;HPM_P2
2022/03/02 00:01:34;;;;;;;10.57;5.53;;;5.70;48.30;;;;;;10009769;28;20489;-71
2022/03/02 00:06:25;;;;;;;15.25;5.68;;;5.70;48.40;;;;;;10004897;28;20501;-68
2022/03/02 00:11:16;;;;;;;14.73;6.05;;;5.60;48.70;;;;;;10013220;28;20052;-69
2022/03/02 00:16:08;;;;;;;9.52;5.55;;;5.60;48.90;;;;;;10007919;28;20109;-73
2022/03/02 00:20:58;;;;;;;13.05;5.38;;;5.60;49.20;;;;;;10014077;28;20029;-70
2022/03/02 00:25:49;;;;;;;13.73;6.22;;;5.50;49.60;;;;;;10014135;28;20029;-74
2022/03/02 00:30:41;;;;;;;13.77;6.57;;;5.40;49.80;;;;;;10012942;28;20159;-73
2022/03/02 00:35:32;;;;;;;12.88;5.85;;;5.50;49.60;;;;;;10015649;28;20044;-70
2022/03/02 00:40:22;;;;;;;11.70;5.80;;;5.40;49.70;;;;;;10016442;28;20034;-67
2022/03/02 00:45:13;;;;;;;9.15;6.22;;;5.30;49.90;;;;;;10013145;28;20197;-68
2022/03/02 00:50:05;;;;;;;13.02;5.85;;;5.30;49.80;;;;;;10014892;28;20041;-71
2022/03/02 00:54:55;;;;;;;10.00;5.57;;;5.30;49.70;;;;;;10011901;28;20529;-70
2022/03/02 00:59:46;;;;;;;9.93;5.53;;;5.10;49.60;;;;;;10015187;28;20121;-71
2022/03/02 01:04:37;;;;;;;13.50;5.65;;;5.00;49.80;;;;;;10009366;28;20026;-69
2022/03/02 01:09:28;;;;;;;12.00;5.57;;;4.90;49.80;;;;;;10011929;28;20034;-69
2022/03/02 01:14:18;;;;;;;11.32;5.70;;;4.70;49.90;;;;;;10009554;28;20057;-69
2022/03/02 01:19:09;;;;;;;11.10;5.65;;;4.70;50.00;;;;;;10002893;28;20038;-68
2022/03/02 01:24:00;;;;;;;11.23;4.95;;;4.60;50.10;;;;;;10009408;28;20048;-69
2022/03/02 01:28:54;;;;;;;11.15;5.97;;;4.50;50.30;;;;;;9999817;28;20104;-70
2022/03/02 01:33:45;;;;;;;11.07;5.70;;;4.60;50.50;;;;;;10003411;28;20041;-74
2022/03/02 01:38:35;;;;;;;11.57;5.13;;;4.60;50.30;;;;;;10003524;28;20018;-71
2022/03/02 01:43:27;;;;;;;13.02;5.55;;;4.60;50.50;;;;;;10011115;28;20029;-69
2022/03/02 01:48:17;;;;;;;13.98;6.18;;;4.60;50.80;;;;;;10007718;28;20504;-69
2022/03/02 01:53:08;;;;;;;11.93;5.55;;;4.60;50.80;;;;;;10008763;28;20042;-70
2022/03/02 01:57:59;;;;;;;11.32;6.03;;;4.70;50.80;;;;;;10005749;28;20316;-68
2022/03/02 02:02:50;;;;;;;10.02;5.75;;;4.60;51.10;;;;;;10008419;28;20049;-70
2022/03/02 02:07:42;;;;;;;9.15;5.70;;;4.50;51.30;;;;;;9996019;28;20470;-69
2022/03/02 02:12:33;;;;;;;11.02;5.20;;;4.50;51.40;;;;;;10009076;28;20253;-70
2022/03/02 02:17:24;;;;;;;14.57;5.78;;;4.50;51.70;;;;;;10005671;28;20386;-70
2022/03/02 02:22:15;;;;;;;13.93;5.25;;;4.50;51.80;;;;;;10008327;28;20022;-68
2022/03/02 02:27:06;;;;;;;10.23;6.03;;;4.60;52.00;;;;;;10008798;28;20037;-71
2022/03/02 02:31:57;;;;;;;11.52;4.90;;;4.60;52.10;;;;;;10009134;28;20049;-75
2022/03/02 02:36:49;;;;;;;14.43;6.10;;;4.50;52.30;;;;;;10007925;28;20030;-72
2022/03/02 02:41:39;;;;;;;12.45;5.78;;;4.50;52.30;;;;;;9995001;28;20318;-69
2022/03/02 02:46:30;;;;;;;11.00;7.43;;;4.40;52.80;;;;;;10008299;28;20344;-70
2022/03/02 02:51:21;;;;;;;14.77;5.82;;;4.30;52.80;;;;;;10007585;28;20108;-70
2022/03/02 02:56:13;;;;;;;12.25;5.30;;;4.30;53.10;;;;;;9997597;28;20460;-70
2022/03/02 03:01:04;;;;;;;11.80;6.05;;;4.30;53.20;;;;;;10010323;28;20036;-70
2022/03/02 03:05:55;;;;;;;14.38;5.82;;;4.10;53.30;;;;;;10007876;28;20288;-69
2022/03/02 03:10:47;;;;;;;10.75;6.57;;;4.00;54.10;;;;;;10007591;28;20065;-71
2022/03/02 03:15:38;;;;;;;14.80;6.40;;;4.10;54.50;;;;;;9992612;28;20121;-69
2022/03/02 03:20:29;;;;;;;15.27;5.80;;;4.00;54.10;;;;;;10000837;28;20062;-70
2022/03/02 03:25:21;;;;;;;15.20;6.07;;;4.00;54.50;;;;;;10000943;28;20392;-70
2022/03/02 03:30:14;;;;;;;13.48;6.40;;;3.90;54.50;;;;;;10004917;28;20044;-71
2022/03/02 03:35:06;;;;;;;10.55;5.60;;;3.70;54.70;;;;;;9978803;28;20106;-70
2022/03/02 03:39:57;;;;;;;14.05;5.43;;;3.70;54.90;;;;;;10007874;28;20031;-70
2022/03/02 03:44:48;;;;;;;13.80;6.22;;;3.70;54.90;;;;;;10005883;28;20057;-70
2022/03/02 03:49:38;;;;;;;12.88;6.05;;;3.60;55.10;;;;;;10015561;28;20038;-71
2022/03/02 03:54:29;;;;;;;15.73;5.95;;;3.60;55.30;;;;;;10012594;28;20058;-71
2022/03/02 03:59:20;;;;;;;15.07;5.95;;;3.70;56.30;;;;;;10006966;28;20459;-71
2022/03/02 04:04:10;;;;;;;10.88;6.40;;;3.50;55.80;;;;;;10008183;28;20027;-70
2022/03/02 04:09:02;;;;;;;12.70;6.40;;;3.40;56.00;;;;;;10009277;28;20443;-72
2022/03/02 04:13:53;;;;;;;9.27;5.45;;;3.40;56.60;;;;;;10007860;28;20062;-70
2022/03/02 04:18:44;;;;;;;11.70;6.43;;;3.40;56.60;;;;;;10012182;28;20026;-70
2022/03/02 04:23:35;;;;;;;10.40;5.72;;;3.40;56.50;;;;;;10013047;28;20096;-71
2022/03/02 04:28:26;;;;;;;14.07;6.45;;;3.30;56.90;;;;;;10015450;28;20045;-71
2022/03/02 04:33:17;;;;;;;13.10;5.95;;;3.40;57.30;;;;;;10012046;28;20034;-70
2022/03/02 04:38:09;;;;;;;10.65;5.80;;;3.40;57.30;;;;;;10008218;28;20120;-72
2022/03/02 04:43:00;;;;;;;11.65;6.07;;;3.30;57.70;;;;;;10010687;28;20022;-70
2022/03/02 04:47:52;;;;;;;12.82;5.93;;;3.30;58.10;;;;;;10009643;28;20030;-71
2022/03/02 04:52:43;;;;;;;13.35;5.43;;;3.20;58.20;;;;;;10011860;28;20562;-71
2022/03/02 04:57:36;;;;;;;13.25;6.43;;;3.30;58.50;;;;;;10013269;28;20087;-72
2022/03/02 05:02:27;;;;;;;14.93;6.10;;;3.30;58.60;;;;;;10012948;28;20033;-72
2022/03/02 05:07:18;;;;;;;14.00;6.78;;;3.40;58.60;;;;;;10012102;28;20099;-71
2022/03/02 05:12:09;;;;;;;17.17;6.13;;;3.50;58.60;;;;;;10009857;28;20045;-72
2022/03/02 05:17:00;;;;;;;15.68;6.45;;;3.20;59.10;;;;;;10013596;28;20113;-71
2022/03/02 05:21:50;;;;;;;13.68;6.70;;;3.10;59.80;;;;;;9997876;28;20452;-71
2022/03/02 05:26:41;;;;;;;10.43;5.70;;;3.10;60.10;;;;;;10015386;28;21433;-71
2022/03/02 05:31:32;;;;;;;10.15;5.53;;;3.00;60.40;;;;;;10009135;28;20045;-72
2022/03/02 05:36:24;;;;;;;12.75;5.65;;;3.00;60.90;;;;;;10008962;28;20029;-70
2022/03/02 05:41:14;;;;;;;11.77;5.65;;;3.00;61.40;;;;;;10002948;28;20038;-72
2022/03/02 05:46:05;;;;;;;14.00;6.28;;;2.90;61.40;;;;;;10010643;28;20018;-71
2022/03/02 05:50:56;;;;;;;12.50;6.15;;;3.00;61.20;;;;;;10012728;28;20092;-72
2022/03/02 05:55:47;;;;;;;16.60;6.47;;;2.90;61.80;;;;;;10012239;28;20030;-70
2022/03/02 06:00:41;;;;;;;13.57;7.40;;;2.90;62.00;;;;;;10011437;28;20030;-70
2022/03/02 06:05:32;;;;;;;15.90;7.57;;;2.90;62.00;;;;;;10025524;28;20026;-71
2022/03/02 06:10:23;;;;;;;16.48;8.52;;;2.90;62.40;;;;;;10005644;28;20091;-71
2022/03/02 06:15:14;;;;;;;12.43;6.50;;;2.90;62.80;;;;;;10004036;28;20212;-72
2022/03/02 06:20:05;;;;;;;14.18;6.43;;;2.80;63.20;;;;;;10007800;28;20164;-71
2022/03/02 06:24:57;;;;;;;17.38;7.22;;;2.80;63.60;;;;;;9997159;28;20377;-71
2022/03/02 06:29:48;;;;;;;16.30;8.27;;;2.90;63.50;;;;;;10011259;28;20057;-70
2022/03/02 06:34:39;;;;;;;15.60;5.47;;;2.80;63.80;;;;;;10024700;28;20040;-70
2022/03/02 06:39:30;;;;;;;9.80;5.60;;;2.90;64.20;;;;;;10010774;28;20358;-71
2022/03/02 06:44:30;;;;;;;13.10;5.93;;;2.90;64.20;;;;;;10007749;28;20115;-72
2022/03/02 06:49:59;;;;;;;13.35;6.00;;;2.80;64.60;;;;;;10008135;28;20048;-70
2022/03/02 06:54:50;;;;;;;14.48;6.82;;;2.80;64.90;;;;;;10002243;28;20050;-71
2022/03/02 06:59:43;;;;;;;10.60;5.10;;;2.80;65.00;;;;;;10011271;28;20097;-71
2022/03/02 07:04:40;;;;;;;10.45;5.40;;;2.70;65.20;;;;;;10009143;28;20048;-72
2022/03/02 07:09:33;;;;;;;17.48;5.93;;;2.80;65.50;;;;;;10023382;28;20041;-73
2022/03/02 07:14:25;;;;;;;12.93;5.53;;;2.90;65.60;;;;;;10014387;28;20141;-70
2022/03/02 07:19:16;;;;;;;10.25;5.28;;;3.20;65.60;;;;;;10018433;28;20504;-71
2022/03/02 07:24:16;;;;;;;12.20;6.05;;;3.30;65.70;;;;;;10022178;28;20594;-70
2022/03/02 07:29:09;;;;;;;19.95;6.85;;;3.40;65.80;;;;;;10018855;28;20030;-70
2022/03/02 07:34:02;;;;;;;20.15;6.78;;;3.70;66.00;;;;;;10021570;28;20040;-69
2022/03/02 07:38:52;;;;;;;13.30;6.63;;;3.50;66.30;;;;;;10034460;28;20025;-74
2022/03/02 07:43:43;;;;;;;14.40;7.53;;;3.60;66.60;;;;;;10032368;28;20490;-65
2022/03/02 07:48:34;;;;;;;13.77;6.78;;;3.40;66.80;;;;;;10019932;28;20042;-69
2022/03/02 07:53:28;;;;;;;15.38;6.82;;;3.40;68.10;;;;;;10025884;28;20037;-68
2022/03/02 07:58:20;;;;;;;15.93;6.95;;;3.40;67.90;;;;;;10031676;28;20520;-68
2022/03/02 08:03:11;;;;;;;16.20;7.60;;;3.60;67.40;;;;;;10019838;28;20052;-67
2022/03/02 08:08:02;;;;;;;12.93;7.03;;;3.70;67.50;;;;;;10026387;28;20717;-67
2022/03/02 08:12:53;;;;;;;15.82;7.85;;;3.80;67.30;;;;;;10026719;28;20108;-69
2022/03/02 08:17:44;;;;;;;13.80;8.10;;;4.10;67.30;;;;;;10032374;28;20259;-69
2022/03/02 08:22:38;;;;;;;17.33;8.57;;;4.30;67.10;;;;;;10022954;28;20033;-72
2022/03/02 08:27:30;;;;;;;15.10;8.25;;;4.80;66.80;;;;;;10014966;28;20124;-68
2022/03/02 08:32:22;;;;;;;17.65;8.40;;;4.90;67.10;;;;;;10010284;28;20168;-70
2022/03/02 08:37:17;;;;;;;19.33;8.38;;;5.00;67.20;;;;;;10009065;28;20031;-69
2022/03/02 08:42:08;;;;;;;19.88;9.35;;;5.00;67.50;;;;;;10004864;28;20053;-70
2022/03/02 08:46:58;;;;;;;18.63;9.82;;;5.40;68.00;;;;;;10018875;28;20065;-69
2022/03/02 08:51:50;;;;;;;16.73;8.30;;;5.20;67.70;;;;;;10023610;28;20551;-69
2022/03/02 08:56:41;;;;;;;22.10;8.38;;;5.10;67.80;;;;;;10021069;28;20503;-68
2022/03/02 09:01:32;;;;;;;17.83;8.27;;;5.40;67.40;;;;;;10024079;28;20026;-68
2022/03/02 09:06:25;;;;;;;12.85;8.70;;;5.30;67.40;;;;;;10008385;28;20026;-69
2022/03/02 09:11:16;;;;;;;17.92;9.07;;;5.50;67.30;;;;;;10022394;28;20057;-69
2022/03/02 09:16:08;;;;;;;20.95;9.95;;;5.50;67.60;;;;;;10021166;28;20618;-69
2022/03/02 09:21:04;;;;;;;18.25;8.82;;;5.80;67.30;;;;;;10021773;28;20536;-68
2022/03/02 09:26:02;;;;;;;18.33;10.10;;;5.90;67.10;;;;;;10001789;28;20029;-66
2022/03/02 09:30:53;;;;;;;14.00;8.40;;;6.10;66.90;;;;;;10029700;28;20049;-66
2022/03/02 09:35:45;;;;;;;19.08;11.00;;;6.30;66.60;;;;;;10019494;28;20034;-67
2022/03/02 09:40:41;;;;;;;20.35;10.10;;;6.30;66.80;;;;;;10024958;28;20033;-70
2022/03/02 09:45:34;;;;;;;15.88;9.70;;;6.40;66.60;;;;;;10017695;28;20042;-72
2022/03/02 09:50:31;;;;;;;16.52;8.45;;;6.40;66.60;;;;;;9996374;28;20427;-73
2022/03/02 09:55:23;;;;;;;19.17;9.65;;;6.40;67.30;;;;;;10016203;28;20021;-75
2022/03/02 10:00:16;;;;;;;21.83;10.05;;;6.60;66.30;;;;;;10021269;28;20471;-71
2022/03/02 10:05:15;;;;;;;19.02;10.05;;;6.50;66.60;;;;;;10010017;28;20144;-72
2022/03/02 10:10:17;;;;;;;20.52;10.63;;;6.50;66.90;;;;;;10015597;28;20480;-71
2022/03/02 10:15:12;;;;;;;19.08;10.43;;;6.70;66.40;;;;;;10021358;28;20053;-74
2022/03/02 10:20:15;;;;;;;21.15;11.25;;;6.80;66.40;;;;;;10020050;28;20026;-66
2022/03/02 10:25:08;;;;;;;20.85;10.88;;;6.90;66.40;;;;;;10019616;28;20551;-66
2022/03/02 10:30:10;;;;;;;18.70;10.45;;;7.40;65.50;;;;;;10003371;28;20037;-70
2022/03/02 10:35:13;;;;;;;17.08;9.50;;;7.60;65.30;;;;;;10008616;28;20072;-70
2022/03/02 10:40:24;;;;;;;19.83;9.45;;;8.00;65.20;;;;;;10015617;28;20041;-68
2022/03/02 10:45:47;;;;;;;21.33;10.57;;;7.40;65.40;;;;;;10017566;28;20440;-70
2022/03/02 10:50:39;;;;;;;19.52;11.45;;;7.40;65.70;;;;;;10014360;28;20044;-69
2022/03/02 10:55:34;;;;;;;21.23;10.95;;;7.40;65.80;;;;;;10021823;28;20014;-69
2022/03/02 11:00:25;;;;;;;18.27;10.15;;;7.50;65.50;;;;;;10020295;28;20492;-70
2022/03/02 11:05:18;;;;;;;17.23;10.18;;;7.70;65.00;;;;;;10016609;28;20037;-70
2022/03/02 11:10:13;;;;;;;22.23;11.18;;;7.70;65.20;;;;;;10010161;28;20044;-69
2022/03/02 11:15:07;;;;;;;20.03;10.17;;;7.80;65.20;;;;;;10019146;28;20109;-74
2022/03/02 11:19:58;;;;;;;20.80;9.85;;;7.70;65.30;;;;;;10020452;28;20103;-70
2022/03/02 11:24:55;;;;;;;19.88;9.45;;;7.70;65.20;;;;;;10019416;28;20057;-66
2022/03/02 11:29:46;;;;;;;16.13;9.52;;;7.50;65.70;;;;;;10023603;28;20057;-70
2022/03/02 11:34:43;;;;;;;14.15;7.97;;;7.70;65.20;;;;;;10025925;28;20526;-66
2022/03/02 11:39:42;;;;;;;15.45;9.77;;;7.50;65.80;;;;;;10015585;28;20553;-70
2022/03/02 11:44:39;;;;;;;19.27;10.10;;;7.70;65.60;;;;;;10027657;28;20072;-69
2022/03/02 11:49:46;;;;;;;16.90;9.77;;;7.60;65.80;;;;;;10019997;28;20038;-67
2022/03/02 11:54:46;;;;;;;18.80;9.55;;;8.10;65.20;;;;;;10022170;28;20037;-66
2022/03/02 11:59:39;;;;;;;18.92;9.55;;;8.10;65.20;;;;;;10013381;28;20234;-66
2022/03/02 12:04:31;;;;;;;18.27;9.18;;;8.20;65.10;;;;;;10021535;28;20045;-65
2022/03/02 12:09:40;;;;;;;18.25;9.13;;;7.90;65.00;;;;;;10019374;28;20315;-67
2022/03/02 12:14:41;;;;;;;14.77;8.68;;;8.10;64.60;;;;;;10012584;28;20449;-66
2022/03/02 12:19:32;;;;;;;19.75;10.45;;;7.90;64.70;;;;;;10014229;28;20037;-65
2022/03/02 12:24:32;;;;;;;19.17;8.90;;;7.90;64.60;;;;;;10013400;28;20493;-66
2022/03/02 12:29:22;;;;;;;14.52;8.52;;;8.00;64.40;;;;;;10008877;28;20061;-66
2022/03/02 12:34:14;;;;;;;17.98;10.18;;;8.20;64.30;;;;;;10012117;28;20559;-67
2022/03/02 12:39:05;;;;;;;19.98;8.40;;;8.70;63.70;;;;;;10011214;28;20440;-66
2022/03/02 12:43:58;;;;;;;20.05;9.20;;;9.10;63.20;;;;;;10011926;28;20021;-65
2022/03/02 12:48:50;;;;;;;17.50;9.85;;;9.40;62.80;;;;;;10011488;28;20484;-65
2022/03/02 12:53:41;;;;;;;17.40;9.65;;;9.90;62.60;;;;;;10012735;28;20034;-66
2022/03/02 12:58:32;;;;;;;13.95;8.52;;;10.20;62.10;;;;;;10021332;28;20124;-68
2022/03/02 13:03:28;;;;;;;12.07;7.75;;;9.90;62.10;;;;;;10010388;28;20076;-71
2022/03/02 13:08:21;;;;;;;;;;;10.10;61.90;;;;;;10008598;28;20040;-66
2022/03/02 13:13:13;;;;;;;12.80;7.55;;;10.10;61.40;;;;;;10009987;28;19921;-63
2022/03/02 13:18:09;;;;;;;13.82;8.82;;;10.10;61.30;;;;;;10013032;28;20021;-66
2022/03/02 13:23:12;;;;;;;15.70;9.32;;;10.40;61.60;;;;;;10001222;28;20575;-68
2022/03/02 13:28:07;;;;;;;14.48;8.25;;;10.40;61.00;;;;;;10025213;28;20102;-65
2022/03/02 13:33:05;;;;;;;12.82;8.23;;;10.00;60.90;;;;;;10024091;28;20527;-64
2022/03/02 13:38:03;;;;;;;16.00;8.88;;;9.90;60.90;;;;;;10008060;28;20102;-63
2022/03/02 13:43:22;;;;;;;13.88;8.38;;;9.80;60.50;;;;;;10007040;28;20473;-66
2022/03/02 13:48:25;;;;;;;18.63;8.65;;;10.00;60.30;;;;;;9992853;28;20026;-63
2022/03/02 13:53:34;;;;;;;14.90;8.80;;;10.50;59.50;;;;;;10007552;28;20373;-63
2022/03/02 13:58:27;;;;;;;14.80;8.90;;;10.80;58.90;;;;;;10007027;28;20088;-65
2022/03/02 14:03:30;;;;;;;18.73;9.82;;;10.50;59.00;;;;;;10009127;28;20034;-61
2022/03/02 14:08:21;;;;;;;19.00;9.15;;;10.40;59.10;;;;;;10008772;28;20042;-63
2022/03/02 14:13:12;;;;;;;16.08;8.93;;;10.60;58.50;;;;;;10015661;28;20124;-65
2022/03/02 14:18:07;;;;;;;13.77;8.20;;;10.30;58.40;;;;;;10010828;28;20105;-63
2022/03/02 14:23:00;;;;;;;15.90;9.05;;;10.30;58.60;;;;;;10005340;28;20029;-65
2022/03/02 14:27:56;;;;;;;13.90;8.68;;;10.40;58.30;;;;;;10024346;28;20133;-67
2022/03/02 14:32:48;;;;;;;14.63;7.85;;;10.10;57.80;;;;;;10009170;28;20160;-65
2022/03/02 14:37:41;;;;;;;14.30;7.60;;;9.90;57.70;;;;;;10020899;28;20053;-64
2022/03/02 14:42:43;;;;;;;15.40;7.55;;;9.70;57.90;;;;;;10005023;28;20036;-63
2022/03/02 14:47:33;;;;;;;17.55;8.02;;;9.50;57.30;;;;;;10015903;28;20113;-63
2022/03/02 14:52:32;;;;;;;14.75;8.68;;;9.40;57.20;;;;;;10000680;28;20049;-63
2022/03/02 14:57:23;;;;;;;20.67;8.25;;;9.50;56.80;;;;;;10020473;28;20492;-63
2022/03/02 15:02:14;;;;;;;14.13;7.45;;;9.40;56.90;;;;;;10024759;28;20021;-64
2022/03/02 15:07:04;;;;;;;15.25;7.53;;;9.50;56.50;;;;;;10022466;28;20404;-63
2022/03/02 15:11:55;;;;;;;16.15;7.20;;;9.80;56.40;;;;;;10027404;28;20045;-64
2022/03/02 15:16:49;;;;;;;15.13;7.78;;;10.30;55.60;;;;;;10024824;28;20381;-62
2022/03/02 15:21:40;;;;;;;14.25;7.72;;;10.30;55.20;;;;;;10024774;28;20492;-64
2022/03/02 15:26:30;;;;;;;14.57;8.00;;;9.70;56.20;;;;;;10028082;28;20068;-63
2022/03/02 15:31:21;;;;;;;17.33;8.30;;;9.50;56.60;;;;;;10022523;28;20037;-70
2022/03/02 15:36:12;;;;;;;15.73;8.27;;;9.30;56.60;;;;;;10003651;28;20500;-62
2022/03/02 15:41:18;;;;;;;17.23;7.95;;;9.40;56.50;;;;;;10027991;28;20400;-62
2022/03/02 15:46:15;;;;;;;17.40;8.23;;;9.30;56.30;;;;;;10011756;28;20040;-62
2022/03/02 15:51:05;;;;;;;18.95;8.32;;;9.10;56.50;;;;;;10030935;28;20041;-63
2022/03/02 15:55:56;;;;;;;15.40;7.30;;;9.10;56.40;;;;;;10024499;28;20025;-67
2022/03/02 16:00:49;;;;;;;14.60;7.80;;;8.80;56.50;;;;;;10031831;28;20025;-68
2022/03/02 16:05:44;;;;;;;14.45;8.82;;;8.80;56.50;;;;;;10030005;28;20026;-63
2022/03/02 16:10:36;;;;;;;19.23;7.93;;;8.70;56.40;;;;;;10027853;28;20037;-68
2022/03/02 16:15:57;;;;;;;19.67;8.52;;;8.50;56.30;;;;;;10032475;28;20053;-63
2022/03/02 16:20:51;;;;;;;15.23;8.57;;;8.50;55.80;;;;;;10010986;28;20049;-67
2022/03/02 16:25:52;;;;;;;20.77;8.13;;;8.50;55.90;;;;;;10027416;28;20425;-64
2022/03/02 16:30:45;;;;;;;19.45;9.13;;;8.40;55.70;;;;;;10028515;28;20339;-63
2022/03/02 16:35:38;;;;;;;17.10;8.32;;;8.30;55.80;;;;;;10028203;28;20540;-61
2022/03/02 16:40:32;;;;;;;20.70;7.78;;;8.30;56.00;;;;;;10021936;28;20369;-62
2022/03/02 16:45:23;;;;;;;17.83;8.15;;;8.30;55.90;;;;;;10031456;28;20108;-62
2022/03/02 16:50:15;;;;;;;15.05;7.78;;;8.20;55.90;;;;;;10010487;28;20307;-62
2022/03/02 16:55:07;;;;;;;10.45;6.00;;;8.20;56.00;;;;;;10028342;28;20018;-63
2022/03/02 16:59:58;;;;;;;12.48;7.35;;;8.10;56.30;;;;;;10031078;28;20408;-61
2022/03/02 17:04:48;;;;;;;12.50;5.97;;;8.00;56.20;;;;;;10029566;28;20050;-64
2022/03/02 17:09:39;;;;;;;10.88;6.45;;;8.00;56.00;;;;;;10029052;28;20069;-63
2022/03/02 17:14:33;;;;;;;14.40;6.60;;;8.00;56.00;;;;;;10011041;28;20053;-63
2022/03/02 17:19:24;;;;;;;15.93;7.15;;;7.90;55.80;;;;;;10010711;28;20014;-61
2022/03/02 17:24:15;;;;;;;13.07;7.43;;;7.90;55.80;;;;;;10005202;28;20038;-62
2022/03/02 17:29:06;;;;;;;14.95;7.25;;;8.00;55.60;;;;;;10010595;28;20088;-61
2022/03/02 17:33:57;;;;;;;22.48;8.40;;;7.90;55.70;;;;;;10006845;28;20103;-68
2022/03/02 17:38:49;;;;;;;16.10;7.40;;;7.90;55.60;;;;;;10009516;28;20034;-66
2022/03/02 17:43:39;;;;;;;12.55;7.43;;;7.90;55.80;;;;;;10004456;28;20048;-63
2022/03/02 17:48:30;;;;;;;14.52;7.07;;;7.80;56.30;;;;;;10007016;28;20714;-62
2022/03/02 17:53:21;;;;;;;14.40;8.30;;;7.80;56.40;;;;;;10013829;28;20048;-62
2022/03/02 17:58:11;;;;;;;17.38;6.57;;;7.80;56.20;;;;;;10004516;28;20022;-72
2022/03/02 18:03:02;;;;;;;13.15;7.22;;;7.60;57.10;;;;;;10004136;28;20041;-69
2022/03/02 18:07:54;;;;;;;11.93;7.25;;;7.40;57.30;;;;;;10011038;28;20079;-66
2022/03/02 18:12:44;;;;;;;13.45;7.75;;;7.30;58.00;;;;;;10007948;28;20382;-69
2022/03/02 18:17:35;;;;;;;14.85;7.55;;;7.10;58.10;;;;;;9998109;28;20488;-71
2022/03/02 18:22:26;;;;;;;14.18;7.15;;;7.00;58.20;;;;;;9996525;28;20034;-71
2022/03/02 18:27:17;;;;;;;14.93;6.70;;;7.00;58.10;;;;;;10010870;28;20036;-71
2022/03/02 18:32:08;;;;;;;15.85;6.60;;;6.80;58.40;;;;;;10005710;28;20042;-65
2022/03/02 18:36:58;;;;;;;11.52;6.03;;;6.80;58.40;;;;;;10009284;28;20037;-75
2022/03/02 18:41:50;;;;;;;14.60;6.28;;;6.70;58.70;;;;;;10006460;28;20400;-70
2022/03/02 18:46:42;;;;;;;13.00;6.35;;;6.70;59.10;;;;;;10010519;28;20061;-76
2022/03/02 18:51:33;;;;;;;12.48;5.80;;;6.60;58.90;;;;;;10004991;28;20481;-72
2022/03/02 18:56:23;;;;;;;13.18;7.00;;;6.50;59.40;;;;;;10027037;28;20034;-68
2022/03/02 19:01:14;;;;;;;12.40;6.50;;;6.50;59.10;;;;;;10010878;28;20277;-67
2022/03/02 19:06:05;;;;;;;16.83;7.03;;;6.50;59.50;;;;;;10008555;28;20109;-66
2022/03/02 19:10:56;;;;;;;16.58;7.80;;;6.40;59.10;;;;;;10007938;28;20045;-66
2022/03/02 19:15:46;;;;;;;13.55;6.60;;;6.40;59.30;;;;;;10005753;28;20373;-70
2022/03/02 19:20:37;;;;;;;13.80;6.95;;;6.30;59.40;;;;;;10013476;28;20504;-64
2022/03/02 19:25:34;;;;;;;12.98;7.10;;;6.30;59.30;;;;;;10017790;28;20060;-65
2022/03/02 19:30:24;;;;;;;11.60;7.10;;;6.30;59.20;;;;;;10009116;28;20056;-63
2022/03/02 19:35:16;;;;;;;16.42;7.50;;;6.30;59.70;;;;;;10023487;28;20041;-63
2022/03/02 19:40:08;;;;;;;12.85;8.18;;;6.20;59.50;;;;;;9991478;28;20482;-62
2022/03/02 19:45:00;;;;;;;13.98;7.20;;;6.20;59.40;;;;;;10017887;28;20036;-65
2022/03/02 19:49:52;;;;;;;13.82;7.63;;;6.20;59.40;;;;;;10002064;28;20481;-64
2022/03/02 19:54:43;;;;;;;13.35;7.47;;;6.00;59.60;;;;;;10011618;28;20119;-63
2022/03/02 19:59:35;;;;;;;18.85;8.55;;;6.00;59.70;;;;;;10010944;28;20036;-63
2022/03/02 20:04:26;;;;;;;15.82;7.82;;;5.90;60.00;;;;;;10010081;28;20281;-72
2022/03/02 20:09:16;;;;;;;10.68;6.35;;;5.90;60.10;;;;;;10018603;28;20671;-65
2022/03/02 20:14:07;;;;;;;14.85;6.88;;;5.80;60.40;;;;;;10013103;28;20366;-66
2022/03/02 20:18:58;;;;;;;14.20;6.95;;;5.80;61.00;;;;;;9990570;28;20022;-65
2022/03/02 20:23:49;;;;;;;12.93;6.53;;;5.90;60.70;;;;;;9994931;28;20065;-65
2022/03/02 20:28:40;;;;;;;10.90;6.72;;;5.90;60.80;;;;;;10020284;28;20088;-68
2022/03/02 20:33:31;;;;;;;12.95;7.00;;;5.70;61.40;;;;;;10015683;28;20041;-67
2022/03/02 20:38:25;;;;;;;12.32;6.32;;;5.70;61.70;;;;;;10012193;28;20018;-67
2022/03/02 20:43:17;;;;;;;12.93;7.15;;;5.70;61.80;;;;;;10017017;28;20544;-65
2022/03/02 20:48:10;;;;;;;11.68;7.22;;;5.70;62.10;;;;;;10007559;28;20129;-67
2022/03/02 20:53:01;;;;;;;12.35;6.70;;;5.60;61.90;;;;;;10006267;28;20052;-69
2022/03/02 20:57:51;;;;;;;12.65;6.28;;;5.50;62.10;;;;;;10011912;28;20041;-63
2022/03/02 21:02:43;;;;;;;12.73;6.05;;;5.40;62.00;;;;;;10010878;28;20037;-63
2022/03/02 21:07:34;;;;;;;15.10;6.57;;;5.40;62.30;;;;;;10014419;28;20030;-65
2022/03/02 21:12:24;;;;;;;13.50;7.35;;;5.40;62.50;;;;;;10014738;28;20045;-64
2022/03/02 21:17:15;;;;;;;10.07;6.65;;;5.00;62.10;;;;;;10003607;28;20063;-62
2022/03/02 21:22:06;;;;;;;14.05;7.53;;;5.40;62.20;;;;;;10010382;28;20504;-62
2022/03/02 21:26:57;;;;;;;14.63;6.68;;;5.30;62.40;;;;;;10012493;28;20037;-61
2022/03/02 21:31:47;;;;;;;20.65;9.35;;;5.30;62.30;;;;;;10000727;28;20042;-64
2022/03/02 21:36:38;;;;;;;14.93;7.32;;;5.30;62.30;;;;;;10006783;28;20564;-64
2022/03/02 21:41:30;;;;;;;18.27;8.10;;;5.20;62.50;;;;;;10011088;28;20029;-62
2022/03/02 21:46:21;;;;;;;11.18;6.75;;;5.00;62.70;;;;;;10005066;28;20026;-64
2022/03/02 21:51:14;;;;;;;13.13;6.75;;;5.00;63.30;;;;;;10006205;28;20148;-63
2022/03/02 21:56:08;;;;;;;12.30;7.25;;;5.00;63.40;;;;;;10008135;28;20065;-63
2022/03/02 22:00:59;;;;;;;17.20;6.90;;;5.10;63.20;;;;;;10001168;28;20029;-65
2022/03/02 22:05:50;;;;;;;14.30;6.80;;;5.10;63.30;;;;;;10011078;28;20030;-63
2022/03/02 22:10:40;;;;;;;14.98;7.68;;;5.00;63.40;;;;;;10007706;28;20026;-63
2022/03/02 22:15:31;;;;;;;13.52;8.00;;;5.00;63.60;;;;;;10010499;28;20680;-63
2022/03/02 22:20:22;;;;;;;12.55;5.80;;;4.90;63.60;;;;;;10008987;28;20034;-63
2022/03/02 22:25:12;;;;;;;14.90;6.40;;;4.90;63.70;;;;;;10002567;28;20051;-63
2022/03/02 22:30:05;;;;;;;14.50;7.68;;;5.00;63.50;;;;;;10007889;28;20053;-63
2022/03/02 22:34:58;;;;;;;14.05;8.05;;;5.00;63.40;;;;;;10009175;28;20044;-63
2022/03/02 22:39:49;;;;;;;15.85;7.68;;;5.10;63.50;;;;;;10007258;28;20010;-64
2022/03/02 22:44:39;;;;;;;15.48;7.78;;;5.10;63.60;;;;;;10010252;28;20592;-63
2022/03/02 22:49:30;;;;;;;12.82;7.22;;;4.80;63.60;;;;;;9996816;28;20084;-64
2022/03/02 22:54:21;;;;;;;16.08;8.55;;;4.90;63.70;;;;;;10006420;28;20546;-63
2022/03/02 22:59:13;;;;;;;13.93;6.72;;;5.50;64.10;;;;;;10008623;28;20022;-62
2022/03/02 23:04:04;;;;;;;18.08;7.55;;;4.80;63.80;;;;;;10005954;28;20038;-62
2022/03/02 23:14:06;;;;;;;19.27;8.43;;;4.70;63.90;;;;;;10007067;28;20068;-65
2022/03/02 23:18:57;;;;;;;15.82;7.13;;;4.70;64.10;;;;;;10003190;28;20109;-62
2022/03/02 23:23:48;;;;;;;13.05;7.35;;;4.70;64.10;;;;;;10000385;28;20048;-63
2022/03/02 23:28:39;;;;;;;12.38;6.88;;;4.70;64.10;;;;;;10001324;28;20022;-63
2022/03/02 23:33:30;;;;;;;13.32;8.30;;;4.60;64.60;;;;;;10008007;28;20244;-63
2022/03/02 23:38:22;;;;;;;14.88;7.47;;;4.50;64.50;;;;;;10009881;28;20070;-62
2022/03/02 23:43:12;;;;;;;14.35;7.68;;;4.50;64.80;;;;;;10002746;28;20062;-62
2022/03/02 23:48:04;;;;;;;14.57;7.85;;;4.50;64.90;;;;;;10005951;28;20080;-61
2022/03/02 23:52:54;;;;;;;15.15;8.25;;;4.50;64.80;;;;;;10008668;28;20046;-64
2022/03/02 23:57:45;;;;;;;29.95;9.38;;;4.20;64.90;;;;;;10007403;28;20028;-62
